Sunday, October 21, 2018, 6:17 AM EDT
Back to Local

KPSM, Pease Air Force Base / Portsmouth

Location: Portsmouth, NH, United States Lat: 43.083
Local Time: 6:17 AM EDT (10:17 GMT) Lon: -70.817
Time Zone: US/Eastern Elev: 101 ft

Show me the last for .
Show Coded

Time T Td Feel RH Dir Speed Gust Alt SLP Vis Weather Sky Remarks
2018-10-21 05:56 46 34 41 63 340° 8 - 29.61 29.62 10 FEW075 OVC090 None
2018-10-21 04:56 45 37 41 73 340° 6 - 29.59 29.59 10 OVC090 None
2018-10-21 03:56 44 36 40 74 330° 7 - 29.55 29.56 10 BKN100 OVC130 None
2018-10-21 02:56 42 39 39 88 320° 5 - 29.55 29.56 10 BKN095 None
2018-10-21 01:56 43 40 41 88 250° 3 - 29.56 29.57 10 BKN100 6-hr Min Temp (2am): 40.5°F
6-hr Max Temp (2am): 51.8°F
2018-10-21 00:56 41 38 39 88 260° 3 - 29.55 29.56 10 SCT100 24-hr Min Temp (1am): 41.2°F
24-hr Max Temp (1am): 63.9°F
2018-10-20 23:56 44 40 - 85 - Calm - 29.55 29.56 10 FEW100 None
2018-10-20 22:56 47 41 44 80 240° 6 - 29.55 29.56 10 FEW100 None
2018-10-20 21:56 48 41 45 77 230° 6 - 29.54 29.54 10 FEW100 None
2018-10-20 20:56 51 41 - 70 210° 5 - 29.53 29.54 10 FEW100 None
2018-10-20 19:56 52 40 - 63 230° 6 - 29.54 29.54 10 FEW050 FEW100 6-hr Min Temp (8pm): 52.0°F
6-hr Max Temp (8pm): 63.9°F
2018-10-20 18:56 53 40 - 60 200° 5 - 29.52 29.53 10 FEW050 FEW100 None
2018-10-20 17:56 57 39 - 51 210° 6 - 29.51 29.52 10 FEW050 FEW250 None
2018-10-20 16:56 61 40 - 44 230° 8 - 29.51 29.52 10 FEW050 FEW250 None
2018-10-20 15:56 63 41 - 43 230° 15 22 29.51 29.52 10 FEW050 SCT250 None
2018-10-20 14:56 60 41 - 48 260° 14 23 29.52 29.53 10 SCT050 None
2018-10-20 13:56 60 44 - 53 260° 10 - 29.54 29.54 10 BKN041 BKN050 6-hr Min Temp (2pm): 56.3°F
6-hr Max Temp (2pm): 62.2°F
2018-10-20 12:56 60 45 - 57 250° 12 - 29.56 29.57 10 SCT036 BKN045 None
2018-10-20 11:56 62 46 - 54 240° 15 23 29.57 29.58 10 BKN036 BKN045 None
2018-10-20 10:56 58 46 - 62 240° 12 21 29.60 29.61 10 BKN033 OVC045 None
2018-10-20 09:56 58 46 - 65 210° 16 22 29.61 29.62 10 FEW029 SCT050 BKN095 None
2018-10-20 08:56 56 44 - 63 220° 12 20 29.61 29.62 10 BKN032 OVC060 None
2018-10-20 07:56 56 43 - 62 210° 14 23 29.61 29.62 10 OVC065 6-hr Min Temp (8am): 52.9°F
6-hr Max Temp (8am): 56.3°F
2018-10-20 06:56 55 43 - 64 190° 13 - 29.60 29.61 10 FEW045 OVC065 None

Support USWX by starting your Amazon purchase here.